createdAt,value
2023-03-31T00:01:42.075Z,11.97
2023-03-31T00:03:45.150Z,11.94
2023-03-31T00:05:48.195Z,12.01
2023-03-31T00:07:54.967Z,11.91
2023-03-31T00:10:10.385Z,11.98
2023-03-31T00:12:20.738Z,11.89
2023-03-31T00:14:23.383Z,11.92
2023-03-31T00:16:26.626Z,11.93
2023-03-31T00:18:30.002Z,12.08
2023-03-31T00:20:33.495Z,12.01
2023-03-31T00:22:38.641Z,12.01
2023-03-31T00:24:41.204Z,12.15
2023-03-31T00:26:44.333Z,12.16
2023-03-31T00:28:48.250Z,12.14
2023-03-31T00:30:51.632Z,12.13
2023-03-31T00:32:54.322Z,12.24
2023-03-31T00:34:57.821Z,12.20
2023-03-31T00:37:02.612Z,12.34
2023-03-31T00:39:08.763Z,12.31
2023-03-31T00:41:11.424Z,12.28
2023-03-31T00:43:28.804Z,12.11
2023-03-31T00:45:32.843Z,12.11
2023-03-31T00:47:36.423Z,12.03
2023-03-31T00:49:41.973Z,11.99
2023-03-31T00:51:46.030Z,12.01
2023-03-31T00:53:55.395Z,12.03
2023-03-31T00:56:03.059Z,12.02
2023-03-31T00:58:08.154Z,11.99
2023-03-31T01:00:14.528Z,11.98
2023-03-31T01:02:20.628Z,12.03
2023-03-31T01:04:23.925Z,12.05
2023-03-31T01:06:30.962Z,11.93
2023-03-31T01:08:36.614Z,11.85
2023-03-31T01:10:42.835Z,11.85
2023-03-31T01:12:48.633Z,11.82
2023-03-31T01:14:51.560Z,11.86
2023-03-31T01:16:54.610Z,11.96
2023-03-31T01:18:58.621Z,11.94
2023-03-31T01:21:31.554Z,11.97
2023-03-31T01:23:59.703Z,12.01
2023-03-31T01:26:38.606Z,11.99
2023-03-31T01:28:44.569Z,12.01
2023-03-31T01:31:06.957Z,12.06
2023-03-31T01:33:32.197Z,12.18
2023-03-31T01:36:04.095Z,12.13
2023-03-31T01:38:41.336Z,12.24
2023-03-31T01:41:02.201Z,12.18
2023-03-31T01:43:11.389Z,12.24
2023-03-31T01:45:24.044Z,12.13
2023-03-31T01:47:32.922Z,12.43
2023-03-31T01:49:42.616Z,12.54
2023-03-31T01:51:50.989Z,12.56
2023-03-31T01:54:03.005Z,12.48
2023-03-31T01:56:14.600Z,12.42
2023-03-31T01:58:22.989Z,12.41
2023-03-31T02:00:33.331Z,12.46
2023-03-31T02:02:40.887Z,12.50
2023-03-31T02:04:49.179Z,12.67
2023-03-31T02:06:57.697Z,12.73
2023-03-31T02:09:05.895Z,12.68
2023-03-31T02:11:10.976Z,12.65
2023-03-31T02:13:16.103Z,12.64
2023-03-31T02:15:26.134Z,12.61
2023-03-31T02:17:30.473Z,12.63
2023-03-31T02:19:36.119Z,12.71
2023-03-31T02:21:41.496Z,12.49
2023-03-31T02:23:46.307Z,12.32
2023-03-31T02:25:52.178Z,12.22
2023-03-31T02:28:00.895Z,12.13
2023-03-31T02:30:04.211Z,12.28
2023-03-31T02:32:15.177Z,12.09
2023-03-31T02:34:17.777Z,11.99
2023-03-31T02:36:21.490Z,12.00
2023-03-31T02:38:24.286Z,11.96
2023-03-31T02:40:27.762Z,11.90
2023-03-31T02:42:30.455Z,11.92
2023-03-31T02:44:34.712Z,11.87
2023-03-31T02:46:37.704Z,11.86
2023-03-31T02:48:44.368Z,11.86
2023-03-31T02:51:02.785Z,11.85
2023-03-31T02:53:14.615Z,11.83
2023-03-31T02:55:19.703Z,11.77
2023-03-31T02:57:42.584Z,11.78
2023-03-31T02:59:58.833Z,11.75
2023-03-31T03:02:11.780Z,11.74
2023-03-31T03:04:34.147Z,11.73
2023-03-31T03:06:43.732Z,11.71
2023-03-31T03:09:01.277Z,11.70
2023-03-31T03:11:11.282Z,11.66
2023-03-31T03:13:21.807Z,11.64
2023-03-31T03:15:29.233Z,11.68
2023-03-31T03:17:36.756Z,11.67
2023-03-31T03:19:39.333Z,11.55
2023-03-31T03:21:41.988Z,11.47
2023-03-31T03:23:44.588Z,11.43
2023-03-31T03:25:48.002Z,11.42
2023-03-31T03:27:52.993Z,11.38
2023-03-31T03:29:56.119Z,11.35
2023-03-31T03:32:00.040Z,11.34
2023-03-31T03:34:03.161Z,11.30
2023-03-31T03:36:06.818Z,11.29
2023-03-31T03:38:09.539Z,11.27
2023-03-31T03:40:12.599Z,11.27
2023-03-31T03:42:15.712Z,11.23
2023-03-31T03:44:18.333Z,11.22
2023-03-31T03:46:21.067Z,11.22
2023-03-31T03:48:25.010Z,11.20
2023-03-31T03:50:27.631Z,11.20
2023-03-31T03:52:30.223Z,11.19
2023-03-31T03:54:32.910Z,11.17
2023-03-31T03:56:35.491Z,11.17
2023-03-31T03:58:38.064Z,11.18
2023-03-31T04:00:40.634Z,11.09
2023-03-31T04:02:43.228Z,11.02
2023-03-31T04:04:47.870Z,10.97
2023-03-31T04:06:50.496Z,10.92
2023-03-31T04:08:53.053Z,10.93
2023-03-31T04:10:55.598Z,10.91
2023-03-31T04:12:58.196Z,11.00
2023-03-31T04:15:00.770Z,10.96
2023-03-31T04:17:03.412Z,10.94
2023-03-31T04:19:06.044Z,10.97
2023-03-31T04:21:12.236Z,11.02
2023-03-31T04:23:14.960Z,11.05
2023-03-31T04:25:17.932Z,11.06
2023-03-31T04:27:21.173Z,11.12
2023-03-31T04:29:26.650Z,11.31
2023-03-31T04:31:30.919Z,11.20
2023-03-31T04:33:38.555Z,11.22
2023-03-31T04:35:48.767Z,11.23
2023-03-31T04:37:58.674Z,11.34
2023-03-31T04:40:08.370Z,11.37
2023-03-31T04:42:11.288Z,11.27
2023-03-31T04:44:13.858Z,11.47
2023-03-31T04:46:16.746Z,11.43
2023-03-31T04:48:19.352Z,11.57
2023-03-31T04:50:22.012Z,11.47
2023-03-31T04:52:24.660Z,11.40
2023-03-31T04:54:28.642Z,11.63
2023-03-31T04:56:31.248Z,11.52
2023-03-31T04:58:33.850Z,11.57
2023-03-31T05:00:36.455Z,11.58
2023-03-31T05:02:39.085Z,11.48
2023-03-31T05:04:41.662Z,11.47
2023-03-31T05:06:44.214Z,11.46
2023-03-31T05:08:46.838Z,11.55
2023-03-31T05:10:50.816Z,11.50
2023-03-31T05:12:53.519Z,11.65
2023-03-31T05:14:56.084Z,11.53
2023-03-31T05:16:59.251Z,11.79
2023-03-31T05:19:01.994Z,11.70
2023-03-31T05:21:15.497Z,11.75
2023-03-31T05:23:21.020Z,11.74
2023-03-31T05:25:24.114Z,11.66
2023-03-31T05:27:28.090Z,11.71
2023-03-31T05:29:31.155Z,11.57
2023-03-31T05:31:33.885Z,11.53
2023-03-31T05:33:40.167Z,11.50
2023-03-31T05:35:42.834Z,11.53
2023-03-31T05:37:45.518Z,11.48
2023-03-31T05:39:48.118Z,11.48
2023-03-31T05:41:50.859Z,11.43
2023-03-31T05:43:54.807Z,11.39
2023-03-31T05:45:57.421Z,11.38
2023-03-31T05:48:00.001Z,11.39
2023-03-31T05:50:04.087Z,11.36
2023-03-31T05:52:07.176Z,11.45
2023-03-31T05:54:09.960Z,11.43
2023-03-31T05:56:12.569Z,11.30
2023-03-31T05:58:15.198Z,11.25
2023-03-31T06:00:19.862Z,11.26
2023-03-31T06:02:22.576Z,11.25
2023-03-31T06:04:25.406Z,11.26
2023-03-31T06:06:28.129Z,11.27
2023-03-31T06:08:30.890Z,11.26
2023-03-31T06:10:33.463Z,11.26
2023-03-31T06:12:36.036Z,11.26
2023-03-31T06:14:38.624Z,11.29
2023-03-31T06:16:42.563Z,11.27
2023-03-31T06:18:45.895Z,11.27
2023-03-31T06:20:48.968Z,11.27
2023-03-31T06:22:51.611Z,11.39
2023-03-31T06:24:54.247Z,11.34
2023-03-31T06:26:56.799Z,11.36
2023-03-31T06:28:59.366Z,11.36
2023-03-31T06:31:03.831Z,11.35
2023-03-31T06:33:08.209Z,11.28
2023-03-31T06:35:11.104Z,11.25
2023-03-31T06:37:13.675Z,11.25
2023-03-31T06:39:16.272Z,11.26
2023-03-31T06:41:20.568Z,11.27
2023-03-31T06:43:23.177Z,11.28
2023-03-31T06:47:28.421Z,11.31
2023-03-31T06:49:32.539Z,11.28
2023-03-31T06:51:35.152Z,11.29
2023-03-31T06:53:38.041Z,11.24
2023-03-31T06:55:40.949Z,11.14
2023-03-31T06:57:43.554Z,11.09
2023-03-31T06:59:46.128Z,11.14
2023-03-31T07:01:50.530Z,11.16
2023-03-31T07:03:53.232Z,11.42
2023-03-31T07:05:57.326Z,11.56
2023-03-31T07:08:02.589Z,11.44
2023-03-31T07:10:06.068Z,11.29
2023-03-31T07:12:10.322Z,11.13
2023-03-31T07:14:12.936Z,11.28
2023-03-31T07:16:15.550Z,11.17
2023-03-31T07:18:19.200Z,11.29
2023-03-31T07:20:21.787Z,11.19
2023-03-31T07:22:26.199Z,10.95
2023-03-31T07:24:28.798Z,10.88
2023-03-31T07:26:31.449Z,10.88
2023-03-31T07:28:34.042Z,10.83
2023-03-31T07:30:36.754Z,10.90
2023-03-31T07:32:41.157Z,10.84
2023-03-31T07:34:43.941Z,10.89
2023-03-31T07:36:46.570Z,10.92
2023-03-31T07:38:50.726Z,10.82
2023-03-31T07:41:05.755Z,11.00
2023-03-31T07:43:12.646Z,10.90
2023-03-31T07:45:16.502Z,11.06
2023-03-31T07:47:19.099Z,11.12
2023-03-31T07:49:21.691Z,11.10
2023-03-31T07:51:26.542Z,11.23
2023-03-31T07:53:29.101Z,11.17
2023-03-31T07:55:33.097Z,11.20
2023-03-31T07:57:36.031Z,11.21
2023-03-31T07:59:38.724Z,11.21
2023-03-31T08:01:41.384Z,11.27
2023-03-31T08:03:44.338Z,11.25
2023-03-31T08:05:46.923Z,11.11
2023-03-31T08:07:51.350Z,11.05
2023-03-31T08:09:53.934Z,11.29
2023-03-31T08:11:57.824Z,11.25
2023-03-31T08:14:00.568Z,11.36
2023-03-31T08:16:03.361Z,11.48
2023-03-31T08:18:06.548Z,11.51
2023-03-31T08:20:10.641Z,11.59
2023-03-31T08:22:13.438Z,11.46
2023-03-31T08:24:16.052Z,11.50
2023-03-31T08:26:19.081Z,11.71
2023-03-31T08:28:23.001Z,11.73
2023-03-31T08:30:25.922Z,11.96
2023-03-31T08:32:28.509Z,11.88
2023-03-31T08:34:31.185Z,11.87
2023-03-31T08:36:34.112Z,12.00
2023-03-31T08:38:39.073Z,11.90
2023-03-31T08:40:42.933Z,12.03
2023-03-31T08:42:48.503Z,12.09
2023-03-31T08:44:59.476Z,12.09
2023-03-31T08:47:03.972Z,12.04
2023-03-31T08:49:08.975Z,12.09
2023-03-31T08:51:16.528Z,12.15
2023-03-31T08:53:23.753Z,12.37
2023-03-31T08:55:32.326Z,12.28
2023-03-31T08:57:44.318Z,12.19
2023-03-31T08:59:48.170Z,12.32
2023-03-31T09:02:01.159Z,12.38
2023-03-31T09:04:19.200Z,12.38
2023-03-31T09:06:28.158Z,12.55
2023-03-31T09:08:37.159Z,12.56
2023-03-31T09:10:48.662Z,12.73
2023-03-31T09:12:57.708Z,12.73
2023-03-31T09:15:02.350Z,12.74
2023-03-31T09:17:18.832Z,12.90
2023-03-31T09:19:32.961Z,12.77
2023-03-31T09:21:40.901Z,12.81
2023-03-31T09:23:47.590Z,12.93
2023-03-31T09:25:51.360Z,13.03
2023-03-31T09:27:57.831Z,13.04
2023-03-31T09:30:04.519Z,13.09
2023-03-31T09:32:16.341Z,12.99
2023-03-31T09:34:23.452Z,13.06
2023-03-31T09:36:26.083Z,12.98
2023-03-31T09:38:31.010Z,13.08
2023-03-31T09:40:35.364Z,13.02
2023-03-31T09:42:39.463Z,13.16
2023-03-31T09:44:44.493Z,13.25
2023-03-31T09:46:47.271Z,13.32
2023-03-31T09:48:56.764Z,13.36
2023-03-31T09:51:02.071Z,13.28
2023-03-31T09:53:06.652Z,13.41
2023-03-31T09:55:35.946Z,13.33
2023-03-31T09:57:41.131Z,13.53
2023-03-31T09:59:45.876Z,13.46
2023-03-31T10:01:53.037Z,13.46
2023-03-31T10:03:58.328Z,13.55
2023-03-31T10:06:01.076Z,13.54
2023-03-31T10:08:24.679Z,13.62
2023-03-31T10:10:33.246Z,13.66
2023-03-31T10:12:36.241Z,13.63
2023-03-31T10:14:44.919Z,13.65
2023-03-31T10:16:51.328Z,13.54
2023-03-31T10:18:53.940Z,13.75
2023-03-31T10:20:59.324Z,13.70
2023-03-31T10:23:07.999Z,13.74
2023-03-31T10:25:17.521Z,13.73
2023-03-31T10:27:24.634Z,13.87
2023-03-31T10:29:31.473Z,13.72
2023-03-31T10:31:37.770Z,13.74
2023-03-31T10:33:45.552Z,13.91
2023-03-31T10:35:51.061Z,13.80
2023-03-31T10:37:58.816Z,13.81
2023-03-31T10:40:04.545Z,13.92
2023-03-31T10:42:07.177Z,14.06
2023-03-31T10:44:35.509Z,14.15
2023-03-31T10:46:43.210Z,14.03
2023-03-31T10:48:46.415Z,14.09
2023-03-31T10:50:49.411Z,14.22
2023-03-31T10:52:52.030Z,14.31
2023-03-31T10:54:59.718Z,14.32
2023-03-31T10:57:05.624Z,14.39
2023-03-31T10:59:20.506Z,14.34
2023-03-31T11:01:34.972Z,14.51
2023-03-31T11:03:57.035Z,14.54
2023-03-31T11:06:06.732Z,14.61
2023-03-31T11:08:26.199Z,14.65
2023-03-31T11:10:43.593Z,14.69
2023-03-31T11:12:53.393Z,14.72
2023-03-31T11:15:04.540Z,14.64
2023-03-31T11:17:19.465Z,14.65
2023-03-31T11:19:37.752Z,14.67
2023-03-31T11:21:56.366Z,14.49
2023-03-31T11:24:08.676Z,14.28
2023-03-31T11:26:18.361Z,13.11
2023-03-31T11:28:30.301Z,12.48
2023-03-31T11:30:39.325Z,11.81
2023-03-31T11:32:54.749Z,11.43
2023-03-31T11:35:14.248Z,10.92
2023-03-31T11:37:41.705Z,10.76
2023-03-31T11:39:55.568Z,10.51
2023-03-31T11:42:03.087Z,10.27
2023-03-31T11:44:10.427Z,10.21
2023-03-31T11:46:16.315Z,10.03
2023-03-31T11:48:27.373Z,9.99
2023-03-31T11:50:33.599Z,9.97
2023-03-31T11:52:40.719Z,9.90
2023-03-31T11:54:46.993Z,9.87
2023-03-31T11:56:50.985Z,9.83
2023-03-31T11:58:56.607Z,9.85
2023-03-31T12:01:06.172Z,9.84
2023-03-31T12:03:14.319Z,10.06
2023-03-31T12:05:18.865Z,10.24
2023-03-31T12:07:27.585Z,10.24
2023-03-31T12:09:38.903Z,10.37
2023-03-31T12:11:45.437Z,10.35
2023-03-31T12:13:54.295Z,10.51
2023-03-31T12:16:06.505Z,10.54
2023-03-31T12:18:14.883Z,10.50
2023-03-31T12:20:26.512Z,10.69
2023-03-31T12:22:34.073Z,10.70
2023-03-31T12:24:37.591Z,10.78
2023-03-31T12:26:51.253Z,10.73
2023-03-31T12:28:59.280Z,10.82
2023-03-31T12:31:05.836Z,10.91
2023-03-31T12:33:17.051Z,11.18
2023-03-31T12:35:23.832Z,11.11
2023-03-31T12:37:53.461Z,11.20
2023-03-31T12:40:10.398Z,11.50
2023-03-31T12:42:33.198Z,11.81
2023-03-31T12:44:48.923Z,11.93
2023-03-31T12:47:18.544Z,12.18
2023-03-31T12:49:33.797Z,12.21
2023-03-31T12:51:52.036Z,12.37
2023-03-31T12:54:10.487Z,12.55
2023-03-31T12:56:13.025Z,12.56
2023-03-31T12:58:41.755Z,12.77
2023-03-31T13:01:06.628Z,13.03
2023-03-31T13:03:46.886Z,13.44
2023-03-31T13:05:49.699Z,13.76
2023-03-31T13:07:52.312Z,14.05
2023-03-31T13:09:58.063Z,14.23
2023-03-31T13:12:08.255Z,14.30
2023-03-31T13:14:17.868Z,14.29
2023-03-31T13:16:21.710Z,14.18
2023-03-31T13:18:25.396Z,14.07
2023-03-31T13:20:35.839Z,13.99
2023-03-31T13:22:41.619Z,14.01
2023-03-31T13:24:44.208Z,14.02
2023-03-31T13:26:48.004Z,14.04
2023-03-31T13:29:11.906Z,13.93
2023-03-31T13:31:16.177Z,13.79
2023-03-31T13:33:24.626Z,13.80
2023-03-31T13:35:33.985Z,13.76
2023-03-31T13:37:58.786Z,13.80
2023-03-31T13:40:33.196Z,13.73
2023-03-31T13:43:02.446Z,13.83
2023-03-31T13:45:19.967Z,13.62
2023-03-31T13:47:57.269Z,13.48
2023-03-31T13:50:18.469Z,13.59
2023-03-31T13:52:32.151Z,13.28
2023-03-31T13:55:03.086Z,13.22
2023-03-31T13:57:39.418Z,13.06
2023-03-31T14:00:04.691Z,12.77
2023-03-31T14:02:48.056Z,12.42
2023-03-31T14:05:08.326Z,12.25
2023-03-31T14:07:15.078Z,12.01
2023-03-31T14:09:26.560Z,12.01
2023-03-31T14:11:31.234Z,12.45
2023-03-31T14:13:33.826Z,12.90
2023-03-31T14:15:38.702Z,13.30
2023-03-31T14:17:43.837Z,13.63
2023-03-31T14:20:01.494Z,13.75
2023-03-31T14:22:13.342Z,13.64
2023-03-31T14:24:19.975Z,13.50
2023-03-31T14:26:39.924Z,13.41
2023-03-31T14:28:58.201Z,13.22
2023-03-31T14:31:20.210Z,13.18
2023-03-31T14:33:37.962Z,12.97
2023-03-31T14:35:50.345Z,12.93
2023-03-31T14:37:53.518Z,12.78
2023-03-31T14:39:58.134Z,12.66
2023-03-31T14:42:06.012Z,12.57
2023-03-31T14:44:15.372Z,12.59
2023-03-31T14:46:22.512Z,12.48
2023-03-31T14:48:25.115Z,12.51
2023-03-31T14:50:32.669Z,12.53
2023-03-31T14:52:35.756Z,12.45
2023-03-31T14:54:38.500Z,12.41
2023-03-31T14:56:41.983Z,12.39
2023-03-31T14:58:50.518Z,12.45
2023-03-31T15:00:54.357Z,12.44
2023-03-31T15:02:58.080Z,12.33
2023-03-31T15:05:03.992Z,12.33
2023-03-31T15:07:07.437Z,12.36
2023-03-31T15:09:18.670Z,12.50
2023-03-31T15:11:22.029Z,12.63
2023-03-31T15:13:34.174Z,12.91
2023-03-31T15:15:38.466Z,12.87
2023-03-31T15:17:43.621Z,13.03
2023-03-31T15:19:46.206Z,12.95
2023-03-31T15:21:56.226Z,12.92
2023-03-31T15:23:59.781Z,12.90
2023-03-31T15:26:08.068Z,13.12
2023-03-31T15:28:14.539Z,13.06
2023-03-31T15:30:19.930Z,13.29
2023-03-31T15:32:27.243Z,13.22
2023-03-31T15:34:34.226Z,13.14
2023-03-31T15:36:36.838Z,13.09
2023-03-31T15:38:39.820Z,13.14
2023-03-31T15:40:44.286Z,13.08
2023-03-31T15:43:01.585Z,13.19
2023-03-31T15:45:39.414Z,12.98
2023-03-31T15:47:50.138Z,12.82
2023-03-31T15:49:58.753Z,12.86
2023-03-31T15:52:02.315Z,12.68
2023-03-31T15:54:12.534Z,12.67
2023-03-31T15:56:31.366Z,12.67
2023-03-31T15:58:55.423Z,12.64
2023-03-31T16:01:04.800Z,12.70
2023-03-31T16:03:15.776Z,12.68
2023-03-31T16:05:43.768Z,12.58
2023-03-31T16:07:54.130Z,12.51
2023-03-31T16:10:00.719Z,12.54
2023-03-31T16:12:06.514Z,12.33
2023-03-31T16:14:14.565Z,12.41
2023-03-31T16:16:21.860Z,12.44
2023-03-31T16:18:31.306Z,12.49
2023-03-31T16:20:37.555Z,12.27
2023-03-31T16:22:42.745Z,12.22
2023-03-31T16:24:45.812Z,12.38
2023-03-31T16:26:49.326Z,12.33
2023-03-31T16:28:53.994Z,12.20
2023-03-31T16:30:58.786Z,12.16
2023-03-31T16:33:03.687Z,12.23
2023-03-31T16:35:08.372Z,12.25
2023-03-31T16:37:11.600Z,12.47
2023-03-31T16:39:14.198Z,12.42
2023-03-31T16:41:17.195Z,12.41
2023-03-31T16:43:21.188Z,12.32
2023-03-31T16:45:23.780Z,12.26
2023-03-31T16:47:35.280Z,12.07
2023-03-31T16:49:39.030Z,11.96
2023-03-31T16:51:42.948Z,12.17
2023-03-31T16:53:46.787Z,11.86
2023-03-31T16:55:50.085Z,11.79
2023-03-31T16:57:52.799Z,11.85
2023-03-31T16:59:57.440Z,11.55
2023-03-31T17:02:01.427Z,11.38
2023-03-31T17:04:04.004Z,11.33
2023-03-31T17:06:08.821Z,11.23
2023-03-31T17:08:13.606Z,11.14
2023-03-31T17:10:17.397Z,11.18
2023-03-31T17:12:20.533Z,11.08
2023-03-31T17:14:23.624Z,11.03
2023-03-31T17:16:32.905Z,10.99
2023-03-31T17:18:48.341Z,10.98
2023-03-31T17:20:51.032Z,10.99
2023-03-31T17:22:54.108Z,10.98
2023-03-31T17:24:58.507Z,11.00
2023-03-31T17:27:01.513Z,11.09
2023-03-31T17:29:04.807Z,11.08
2023-03-31T17:31:12.933Z,11.04
2023-03-31T17:33:16.329Z,10.93
2023-03-31T17:35:21.529Z,11.00
2023-03-31T17:37:24.166Z,10.90
2023-03-31T17:39:27.513Z,10.85
2023-03-31T17:41:32.134Z,10.89
2023-03-31T17:43:35.389Z,10.84
2023-03-31T17:45:38.176Z,10.84
2023-03-31T17:47:41.414Z,10.98
2023-03-31T17:49:44.428Z,11.05
2023-03-31T17:51:47.340Z,11.09
2023-03-31T17:53:49.899Z,10.92
2023-03-31T17:55:52.566Z,10.94
2023-03-31T17:57:57.276Z,10.87
2023-03-31T17:59:59.848Z,10.91
2023-03-31T18:02:02.499Z,10.90
2023-03-31T18:04:05.230Z,10.95
2023-03-31T18:06:11.343Z,11.10
2023-03-31T18:08:14.079Z,11.17
2023-03-31T18:10:18.643Z,11.04
2023-03-31T18:12:21.227Z,10.98
2023-03-31T18:14:25.290Z,11.03
2023-03-31T18:16:30.636Z,10.98
2023-03-31T18:18:34.292Z,11.01
2023-03-31T18:20:36.961Z,11.00
2023-03-31T18:22:39.918Z,10.97
2023-03-31T18:24:42.647Z,10.87
2023-03-31T18:26:45.595Z,10.97
2023-03-31T18:28:48.235Z,10.86
2023-03-31T18:30:53.245Z,10.96
2023-03-31T18:32:55.968Z,10.81
2023-03-31T18:34:58.625Z,10.79
2023-03-31T18:37:01.296Z,10.85
2023-03-31T18:39:04.068Z,10.79
2023-03-31T18:41:07.245Z,10.80
2023-03-31T18:43:11.755Z,10.76
2023-03-31T18:45:14.323Z,10.74
2023-03-31T18:47:18.207Z,10.99
2023-03-31T18:49:21.172Z,10.80
2023-03-31T18:51:23.737Z,10.90
2023-03-31T18:53:26.390Z,10.75
2023-03-31T18:55:29.581Z,10.76
2023-03-31T18:57:32.467Z,10.94
2023-03-31T18:59:35.065Z,10.91
2023-03-31T19:01:40.126Z,10.85
2023-03-31T19:03:44.684Z,10.80
2023-03-31T19:05:47.855Z,10.74
2023-03-31T19:07:51.171Z,10.67
2023-03-31T19:09:53.753Z,10.77
2023-03-31T19:11:57.197Z,10.80
2023-03-31T19:13:59.835Z,10.75
2023-03-31T19:16:02.747Z,10.71
2023-03-31T19:18:06.127Z,10.74
2023-03-31T19:20:16.290Z,10.64
2023-03-31T19:22:19.097Z,10.60
2023-03-31T19:24:21.625Z,10.53
2023-03-31T19:26:28.297Z,10.51
2023-03-31T19:28:32.204Z,10.48
2023-03-31T19:30:35.058Z,10.49
2023-03-31T19:32:37.735Z,10.48
2023-03-31T19:34:40.375Z,10.53
2023-03-31T19:36:44.277Z,10.63
2023-03-31T19:38:46.853Z,10.59
2023-03-31T19:40:49.868Z,10.53
2023-03-31T19:42:52.419Z,10.68
2023-03-31T19:44:54.995Z,10.81
2023-03-31T19:46:58.672Z,11.00
2023-03-31T19:49:01.449Z,10.87
2023-03-31T19:51:05.815Z,10.78
2023-03-31T19:53:09.764Z,11.03
2023-03-31T19:55:12.664Z,10.95
2023-03-31T19:57:15.234Z,10.75
2023-03-31T19:59:17.875Z,10.70
2023-03-31T20:01:22.650Z,10.89
2023-03-31T20:03:28.117Z,10.76
2023-03-31T20:05:32.339Z,11.01
2023-03-31T20:07:35.224Z,10.69
2023-03-31T20:09:39.251Z,10.88
2023-03-31T20:11:43.362Z,10.88
2023-03-31T20:13:46.248Z,10.80
2023-03-31T20:15:48.826Z,10.83
2023-03-31T20:17:51.747Z,10.73
2023-03-31T20:19:55.208Z,10.66
2023-03-31T20:21:57.896Z,10.79
2023-03-31T20:24:00.634Z,10.92
2023-03-31T20:26:04.791Z,10.95
2023-03-31T20:28:07.652Z,10.87
2023-03-31T20:30:10.932Z,10.98
2023-03-31T20:32:17.120Z,11.06
2023-03-31T20:34:22.455Z,10.87
2023-03-31T20:36:27.168Z,11.02
2023-03-31T20:38:29.937Z,11.15
2023-03-31T20:40:32.498Z,10.98
2023-03-31T20:42:37.199Z,11.02
2023-03-31T20:44:39.750Z,10.78
2023-03-31T20:46:43.401Z,10.69
2023-03-31T20:48:47.862Z,10.80
2023-03-31T20:50:51.266Z,10.75
2023-03-31T20:52:53.868Z,10.91
2023-03-31T20:54:56.420Z,10.88
2023-03-31T20:57:00.968Z,10.73
2023-03-31T20:59:06.217Z,10.91
2023-03-31T21:01:09.540Z,10.83
2023-03-31T21:03:12.184Z,10.65
2023-03-31T21:05:14.746Z,10.77
2023-03-31T21:07:17.304Z,10.70
2023-03-31T21:09:19.869Z,10.68
2023-03-31T21:11:24.089Z,10.67
2023-03-31T21:13:27.937Z,10.68
2023-03-31T21:15:32.006Z,10.75
2023-03-31T21:17:34.743Z,10.74
2023-03-31T21:19:37.307Z,10.61
2023-03-31T21:21:41.186Z,10.55
2023-03-31T21:23:44.145Z,10.58
2023-03-31T21:25:48.528Z,10.65
2023-03-31T21:27:51.263Z,10.61
2023-03-31T21:29:53.885Z,10.61
2023-03-31T21:31:57.822Z,10.73
2023-03-31T21:34:02.378Z,10.78
2023-03-31T21:36:05.416Z,10.66
2023-03-31T21:38:08.263Z,10.78
2023-03-31T21:40:12.751Z,10.73
2023-03-31T21:42:15.301Z,10.64
2023-03-31T21:44:17.887Z,10.72
2023-03-31T21:46:22.794Z,10.56
2023-03-31T21:48:26.811Z,10.45
2023-03-31T21:50:29.646Z,10.32
2023-03-31T21:52:32.249Z,10.33
2023-03-31T21:54:34.790Z,10.49
2023-03-31T21:56:37.369Z,10.41
2023-03-31T21:58:39.944Z,10.56
2023-03-31T22:00:42.937Z,10.40
2023-03-31T22:02:45.564Z,10.51
2023-03-31T22:04:49.478Z,10.56
2023-03-31T22:06:52.240Z,10.64
2023-03-31T22:08:54.914Z,10.59
2023-03-31T22:10:59.957Z,10.46
2023-03-31T22:13:02.732Z,10.52
2023-03-31T22:15:06.204Z,10.67
2023-03-31T22:17:08.734Z,10.54
2023-03-31T22:19:13.213Z,10.46
2023-03-31T22:21:20.442Z,10.34
2023-03-31T22:23:23.167Z,10.60
2023-03-31T22:25:25.920Z,10.68
2023-03-31T22:27:28.518Z,10.65
2023-03-31T22:29:32.118Z,10.61
2023-03-31T22:31:34.758Z,10.49
2023-03-31T22:33:37.411Z,10.45
2023-03-31T22:35:40.314Z,10.46
2023-03-31T22:37:44.663Z,10.54
2023-03-31T22:39:47.225Z,10.46
2023-03-31T22:41:50.811Z,10.44
2023-03-31T22:43:53.429Z,10.42
2023-03-31T22:45:56.232Z,10.36
2023-03-31T22:47:58.908Z,10.32
2023-03-31T22:50:01.481Z,10.41
2023-03-31T22:52:04.167Z,10.47
2023-03-31T22:54:08.777Z,10.44
2023-03-31T22:56:12.857Z,10.51
2023-03-31T22:58:15.676Z,10.30
2023-03-31T23:00:18.601Z,10.33
2023-03-31T23:02:21.492Z,10.51
2023-03-31T23:04:24.124Z,10.32
2023-03-31T23:06:27.360Z,10.35
2023-03-31T23:08:29.926Z,10.30
2023-03-31T23:10:34.024Z,10.17
2023-03-31T23:12:36.773Z,10.03
2023-03-31T23:14:39.492Z,10.14
2023-03-31T23:16:42.163Z,10.08
2023-03-31T23:18:46.798Z,10.17
2023-03-31T23:20:49.416Z,10.14
2023-03-31T23:22:53.279Z,9.99
2023-03-31T23:24:55.989Z,10.14
2023-03-31T23:26:59.908Z,10.06
2023-03-31T23:29:02.994Z,9.98
2023-03-31T23:31:06.322Z,10.13
2023-03-31T23:33:09.505Z,10.15
2023-03-31T23:35:12.420Z,10.21
2023-03-31T23:37:15.643Z,10.06
2023-03-31T23:39:18.234Z,9.93
2023-03-31T23:41:22.732Z,9.98
2023-03-31T23:43:30.081Z,9.91
2023-03-31T23:45:33.001Z,10.02
2023-03-31T23:47:36.016Z,10.09
2023-03-31T23:49:38.914Z,10.11
2023-03-31T23:51:41.618Z,10.05
2023-03-31T23:53:44.344Z,10.01
2023-03-31T23:55:54.255Z,10.17
2023-03-31T23:57:57.505Z,10.31
